Upstream stations:
Downstream station:
SHEF ID: BRIO2 Canadian River at Bridgeport, OK
STATION TYPE:
Regulating: Stage = 15.00, Flow = 8545
STAGE RIV-FLOW
ft cfs
Ccp-Rev Ccp-Rev
(US/Central)
06/09 00:00 12.60 2190
06/09 01:00 12.58 2161
06/09 02:00 12.57 2146
06/09 03:00 12.55 2117
06/09 04:00 12.53 2089
06/09 05:00 12.51 2060
06/09 06:00 12.73 2388
06/09 07:00 13.15 3111
06/09 08:00 13.13 3073
06/09 09:00 13.10 3018
06/09 10:00 12.99 2820
06/09 11:00 12.95 2750
06/09 12:00 12.90 2665
06/09 13:00 12.88 2631
06/09 14:00 12.88 2631
06/09 15:00 12.86 2598
06/09 16:00 12.86 2598
06/09 17:00 12.86 2598
06/09 18:00 12.84 2565
06/09 19:00 12.80 2500
06/09 20:00 12.68 2311
06/09 21:00 12.64 2250
06/09 22:00 11.24 815
06/09 23:00 ---- ----